Time;durP1;ratioP1;P1;durP2;ratioP2;P2;SDS_P1;SDS_P2;PMS_P1;PMS_P2;Temp;Humidity;BMP_temperature;BMP_pressure;BME280_temperature;BME280_humidity;BME280_pressure;Samples;Min_cycle;Max_cycle;Signal;HPM_P1;HPM_P2
2023/12/18 00:01:11;;;;;;;28.77;15.27;;;;;;;1.04;100.00;97587.06;7402587;19;20400;-90
2023/12/18 00:03:38;;;;;;;41.20;17.67;;;;;;;1.06;100.00;97597.97;7402566;19;20384;-90
2023/12/18 00:06:07;;;;;;;22.73;14.23;;;;;;;0.36;100.00;97515.13;7402401;19;20451;-89
2023/12/18 00:08:34;;;;;;;36.17;21.60;;;;;;;1.06;100.00;97616.06;7402882;19;20377;-90
2023/12/18 00:11:02;;;;;;;50.03;18.00;;;;;;;1.05;100.00;97614.47;7402983;19;20377;-90
2023/12/18 00:13:31;;;;;;;29.80;16.43;;;;;;;1.46;100.00;97676.19;7402649;19;20368;-89
2023/12/18 00:15:58;;;;;;;36.73;16.30;;;;;;;1.04;100.00;97625.81;7402989;19;20376;-90
2023/12/18 00:18:26;;;;;;;29.40;16.43;;;;;;;0.68;100.00;97587.56;7402818;19;20376;-89
2023/12/18 00:20:58;;;;;;;35.47;17.30;;;;;;;0.70;100.00;97595.91;7401883;19;20381;-90
2023/12/18 00:23:39;;;;;;;46.53;17.60;;;;;;;0.79;100.00;97626.50;7403544;19;20376;-89
2023/12/18 00:26:06;;;;;;;41.33;17.13;;;;;;;0.84;100.00;97644.75;7402251;19;20458;-90
2023/12/18 00:28:33;;;;;;;43.30;16.57;;;;;;;0.65;100.00;97590.56;7403033;19;20381;-90
2023/12/18 00:31:01;;;;;;;36.63;17.20;;;;;;;1.00;100.00;97625.41;7403101;19;20379;-90
2023/12/18 00:33:31;;;;;;;44.50;16.70;;;;;;;0.97;100.00;97584.47;7402763;19;20377;-90
2023/12/18 00:36:05;;;;;;;32.17;16.47;;;;;;;1.61;100.00;97684.47;7402881;19;20364;-90
2023/12/18 00:38:33;;;;;;;33.40;17.23;;;;;;;1.16;100.00;97619.00;7402148;19;20408;-90
2023/12/18 00:41:06;;;;;;;21.33;14.30;;;;;;;1.08;100.00;97616.66;7402317;19;21819;-89
2023/12/18 00:43:36;;;;;;;28.90;14.77;;;;;;;1.11;100.00;97596.34;7403257;19;20491;-90
2023/12/18 00:46:05;;;;;;;34.73;15.77;;;;;;;1.14;100.00;97595.94;7402374;19;20396;-90
2023/12/18 00:48:35;;;;;;;21.13;15.00;;;;;;;0.49;100.00;97486.69;7402667;19;20401;-90
2023/12/18 00:51:06;;;;;;;40.00;16.47;;;;;;;1.02;100.00;97571.72;7401878;19;20385;-90
2023/12/18 00:53:33;;;;;;;23.77;15.67;;;;;;;1.15;100.00;97605.28;7401967;19;20452;-90
2023/12/18 00:56:04;;;;;;;39.17;15.03;;;;;;;0.58;100.00;97510.50;7401943;19;20391;-90
2023/12/18 00:58:34;;;;;;;39.60;15.77;;;;;;;0.99;100.00;97625.63;7399845;19;20369;-90
2023/12/18 01:01:01;;;;;;;22.60;15.27;;;;;;;0.60;100.00;97555.00;7402145;19;20373;-91
2023/12/18 01:03:33;;;;;;;20.03;15.10;;;;;;;0.90;100.00;97594.06;7402199;19;20380;-90
2023/12/18 01:06:06;;;;;;;22.83;14.30;;;;;;;1.01;100.00;97613.28;7401367;19;20519;-90
2023/12/18 01:08:36;;;;;;;24.90;15.83;;;;;;;0.81;100.00;97592.69;7401379;19;20977;-90
2023/12/18 01:11:13;;;;;;;50.73;16.63;;;;;;;0.33;100.00;97518.13;7401827;19;20396;-90
2023/12/18 01:13:42;;;;;;;24.03;14.17;;;;;;;0.85;100.00;97605.00;7401443;19;20463;-90
2023/12/18 01:16:12;;;;;;;46.43;14.80;;;;;;;0.88;100.00;97596.03;7403390;19;20365;-90
2023/12/18 01:18:45;;;;;;;31.07;15.47;;;;;;;0.93;100.00;97616.91;7401125;19;20395;-90
2023/12/18 01:21:13;;;;;;;30.17;14.13;;;;;;;0.29;100.00;97514.34;7401396;19;20438;-90
2023/12/18 01:23:41;;;;;;;40.77;17.00;;;;;;;1.06;100.00;97639.34;7400014;19;20395;-90
2023/12/18 01:26:09;;;;;;;25.80;15.30;;;;;;;0.85;100.00;97584.31;7399835;19;20412;-90
2023/12/18 01:28:36;;;;;;;26.10;14.07;;;;;;;0.65;100.00;97568.09;7399913;19;20893;-90
2023/12/18 01:31:04;;;;;;;40.73;15.17;;;;;;;1.10;100.00;97622.41;7400092;19;20408;-90
2023/12/18 01:33:31;;;;;;;29.53;14.97;;;;;;;0.75;100.00;97576.19;7401106;19;20391;-90
2023/12/18 01:35:59;;;;;;;16.60;13.43;;;;;;;1.40;100.00;97659.66;7399500;19;20381;-90
2023/12/18 01:38:26;;;;;;;23.50;13.60;;;;;;;0.87;100.00;97577.16;7399338;19;20479;-90
2023/12/18 01:40:54;;;;;;;37.57;15.67;;;;;;;0.37;100.00;97498.66;7400093;19;20397;-90
2023/12/18 01:43:26;;;;;;;23.77;16.40;;;;;;;1.73;100.00;97718.25;7399866;19;20725;-90
2023/12/18 01:46:01;;;;;;;30.63;15.70;;;;;;;1.41;100.00;97665.63;7399547;19;20367;-90
2023/12/18 01:48:30;;;;;;;35.60;16.23;;;;;;;0.95;100.00;97598.63;7399245;19;20420;-90
2023/12/18 01:50:59;;;;;;;23.60;16.13;;;;;;;0.85;100.00;97599.81;7399297;19;20369;-90
2023/12/18 01:53:34;;;;;;;29.93;15.40;;;;;;;1.34;100.00;97676.03;7399282;19;20376;-90
2023/12/18 01:56:03;;;;;;;34.90;15.97;;;;;;;0.76;100.00;97588.16;7399565;19;20901;-90
2023/12/18 01:58:33;;;;;;;34.87;19.03;;;;;;;0.73;100.00;97598.88;7399620;19;20464;-90
2023/12/18 02:01:01;;;;;;;26.30;15.80;;;;;;;0.73;100.00;97580.00;7398414;19;20380;-90
2023/12/18 02:03:30;;;;;;;36.80;17.37;;;;;;;1.68;100.00;97687.78;7399075;19;20385;-90
2023/12/18 02:05:59;;;;;;;21.37;14.60;;;;;;;0.29;100.00;97466.09;7398554;19;20405;-90
2023/12/18 02:08:27;;;;;;;26.37;15.47;;;;;;;0.87;100.00;97550.53;7395934;19;20400;-90
2023/12/18 02:10:55;;;;;;;19.77;16.00;;;;;;;0.52;100.00;97501.78;7398472;19;20706;-89
2023/12/18 02:13:22;;;;;;;22.13;16.53;;;;;;;1.82;100.00;97693.69;7398906;19;20365;-90
2023/12/18 02:15:50;;;;;;;21.20;15.87;;;;;;;0.72;100.00;97524.94;7400278;19;20421;-90
2023/12/18 02:18:18;;;;;;;28.53;17.07;;;;;;;1.48;100.00;97637.97;7400298;19;20461;-90
2023/12/18 02:20:45;;;;;;;39.70;16.10;;;;;;;1.20;100.00;97574.44;7398235;19;20389;-90
2023/12/18 02:23:12;;;;;;;20.10;15.03;;;;;;;0.93;100.00;97544.53;7399136;19;20377;-90
2023/12/18 02:25:40;;;;;;;20.07;14.27;;;;;;;1.13;100.00;97572.88;7397990;19;20477;-90
2023/12/18 02:28:10;;;;;;;18.60;14.40;;;;;;;0.92;100.00;97550.72;7396436;19;20929;-90
2023/12/18 02:30:40;;;;;;;18.80;14.33;;;;;;;1.17;100.00;97580.03;7398134;19;20865;-90
2023/12/18 02:33:13;;;;;;;20.40;16.00;;;;;;;0.38;100.00;97463.31;7399011;19;20676;-91
2023/12/18 02:35:41;;;;;;;26.00;13.97;;;;;;;1.16;100.00;97573.28;7398266;19;20385;-90
2023/12/18 02:38:08;;;;;;;20.77;15.50;;;;;;;1.17;100.00;97572.28;7397784;19;20389;-90
2023/12/18 02:40:37;;;;;;;18.27;14.87;;;;;;;0.90;100.00;97545.75;7397897;19;20380;-90
2023/12/18 02:43:05;;;;;;;18.00;14.30;;;;;;;1.21;100.00;97590.75;7396882;19;20396;-90
2023/12/18 02:45:32;;;;;;;18.30;14.73;;;;;;;0.77;100.00;97527.72;7397937;19;20369;-89
2023/12/18 02:48:00;;;;;;;22.90;15.57;;;;;;;0.64;100.00;97494.19;7396735;19;20389;-90
2023/12/18 02:50:27;;;;;;;23.37;14.07;;;;;;;0.74;100.00;97488.56;7397620;19;20874;-90
2023/12/18 02:52:55;;;;;;;17.00;14.43;;;;;;;1.25;100.00;97578.19;7397594;19;20397;-90
2023/12/18 02:55:23;;;;;;;16.43;12.87;;;;;;;0.33;100.00;97427.75;7397150;19;20385;-90
2023/12/18 02:57:50;;;;;;;23.63;15.57;;;;;;;0.84;100.00;97520.72;7397389;19;20398;-90
2023/12/18 03:00:18;;;;;;;17.67;13.40;;;;;;;0.37;100.00;97430.75;7397263;19;20385;-90
2023/12/18 03:02:45;;;;;;;24.53;14.70;;;;;;;1.21;100.00;97567.47;7396051;19;20375;-90
2023/12/18 03:05:14;;;;;;;22.10;15.90;;;;;;;1.16;100.00;97588.78;7396958;19;20401;-90
2023/12/18 03:07:41;;;;;;;20.67;14.00;;;;;;;0.82;100.00;97522.72;7396179;19;20380;-90
2023/12/18 03:10:09;;;;;;;19.57;14.30;;;;;;;1.08;100.00;97560.56;7397330;19;20599;-90
2023/12/18 03:12:36;;;;;;;22.90;15.70;;;;;;;1.11;100.00;97554.19;7397049;19;20400;-90
2023/12/18 03:15:05;;;;;;;16.50;13.67;;;;;;;1.40;100.00;97583.88;7397236;19;20371;-90
2023/12/18 03:17:32;;;;;;;18.60;13.57;;;;;;;1.08;100.00;97531.34;7396721;19;20701;-90
2023/12/18 03:20:00;;;;;;;20.10;14.50;;;;;;;0.18;100.00;97397.03;7396924;19;20523;-88
2023/12/18 03:22:27;;;;;;;22.07;15.00;;;;;;;1.07;100.00;97532.34;7401028;19;20408;-87
2023/12/18 03:24:55;;;;;;;21.57;14.07;;;;;;;1.42;100.00;97587.84;7404074;19;20395;-89
2023/12/18 03:27:22;;;;;;;19.30;14.10;;;;;;;0.18;100.00;97407.38;7402950;19;20384;-88
2023/12/18 03:29:50;;;;;;;24.83;14.10;;;;;;;0.99;100.00;97548.88;7403930;19;20870;-88
2023/12/18 03:32:17;;;;;;;21.77;14.10;;;;;;;1.21;100.00;97570.06;7402866;19;20412;-89
2023/12/18 03:34:44;;;;;;;20.43;14.20;;;;;;;0.82;100.00;97504.63;7403955;19;20375;-88
2023/12/18 03:37:12;;;;;;;21.70;12.77;;;;;;;1.36;100.00;97591.25;7403866;19;20373;-88
2023/12/18 03:39:39;;;;;;;20.47;15.10;;;;;;;0.80;100.00;97516.97;7401069;19;20910;-91
2023/12/18 03:42:07;;;;;;;23.40;15.47;;;;;;;1.31;100.00;97591.09;7402357;19;20389;-89
2023/12/18 03:44:35;;;;;;;23.10;13.23;;;;;;;1.21;100.00;97578.59;7403415;19;20371;-89
2023/12/18 03:47:03;;;;;;;26.00;13.77;;;;;;;0.23;100.00;97435.97;7403259;19;20384;-89
2023/12/18 03:49:30;;;;;;;21.67;15.57;;;;;;;0.61;100.00;97473.91;7403398;19;20880;-89
2023/12/18 03:51:58;;;;;;;18.87;13.83;;;;;;;0.42;100.00;97444.59;7402150;19;20376;-88
2023/12/18 03:54:26;;;;;;;19.10;15.17;;;;;;;-0.38;100.00;97314.31;7404838;19;20361;-89
2023/12/18 03:56:53;;;;;;;23.53;13.80;;;;;;;1.01;100.00;97522.81;7403303;19;20369;-89
2023/12/18 03:59:21;;;;;;;21.23;14.30;;;;;;;1.65;100.00;97641.63;7402980;19;20368;-89
2023/12/18 04:01:48;;;;;;;20.63;15.20;;;;;;;0.76;100.00;97500.31;7401138;19;20404;-89
2023/12/18 04:04:15;;;;;;;25.70;16.30;;;;;;;0.61;100.00;97464.38;7402984;19;20383;-89
2023/12/18 04:06:44;;;;;;;23.93;14.10;;;;;;;1.69;100.00;97626.47;7403070;19;20373;-89
2023/12/18 04:09:11;;;;;;;20.97;15.60;;;;;;;0.77;100.00;97491.56;7403192;19;20400;-89
2023/12/18 04:11:39;;;;;;;17.17;15.20;;;;;;;0.39;100.00;97450.19;7401900;19;20425;-89
2023/12/18 04:14:06;;;;;;;23.30;15.93;;;;;;;1.09;100.00;97541.47;7403082;19;20444;-89
2023/12/18 04:16:35;;;;;;;28.33;17.57;;;;;;;0.74;100.00;97499.69;7402732;19;20396;-89
2023/12/18 04:19:04;;;;;;;23.73;17.50;;;;;;;1.10;100.00;97565.53;7402479;19;20412;-89
2023/12/18 04:21:32;;;;;;;21.53;16.23;;;;;;;0.68;100.00;97481.66;7401674;19;20418;-89
2023/12/18 04:24:00;;;;;;;22.50;19.40;;;;;;;0.89;100.00;97517.50;7402768;19;20373;-89
2023/12/18 04:26:28;;;;;;;22.83;15.60;;;;;;;0.65;100.00;97467.38;7402368;19;20783;-89
2023/12/18 04:28:56;;;;;;;25.43;18.50;;;;;;;0.91;100.00;97487.13;7399516;19;20383;-89
2023/12/18 04:31:24;;;;;;;28.43;17.90;;;;;;;0.33;100.00;97423.38;7401417;19;20412;-89
2023/12/18 04:33:51;;;;;;;23.30;15.23;;;;;;;0.96;100.00;97525.25;7402940;19;20361;-89
2023/12/18 04:36:19;;;;;;;34.97;24.17;;;;;;;0.69;100.00;97478.06;7401845;19;20464;-89
2023/12/18 04:38:47;;;;;;;27.00;16.80;;;;;;;0.52;100.00;97493.25;7400484;19;20432;-89
2023/12/18 04:41:18;;;;;;;20.20;16.00;;;;;;;0.50;100.00;97469.41;7401780;19;20414;-89
2023/12/18 04:43:46;;;;;;;27.50;16.73;;;;;;;0.40;100.00;97461.31;7401656;19;20392;-89
2023/12/18 04:46:14;;;;;;;26.87;16.70;;;;;;;0.45;100.00;97459.69;7402870;19;20385;-89
2023/12/18 04:48:42;;;;;;;21.77;15.90;;;;;;;0.35;100.00;97459.31;7399537;19;20862;-88
2023/12/18 04:51:09;;;;;;;24.43;18.63;;;;;;;0.52;100.00;97488.88;7401200;19;20383;-89
2023/12/18 04:53:37;;;;;;;21.90;15.50;;;;;;;0.80;100.00;97503.25;7401401;19;20865;-89
2023/12/18 04:56:05;;;;;;;23.93;16.60;;;;;;;0.74;100.00;97479.03;7401064;19;20393;-89
2023/12/18 04:58:35;;;;;;;30.20;17.27;;;;;;;0.48;100.00;97433.44;7401442;19;20352;-89
2023/12/18 05:01:03;;;;;;;17.10;13.10;;;;;;;0.35;100.00;97423.19;7401315;19;20372;-89
2023/12/18 05:03:31;;;;;;;21.53;16.37;;;;;;;0.55;100.00;97475.53;7403015;19;20426;-89
2023/12/18 05:05:59;;;;;;;24.80;16.17;;;;;;;0.48;100.00;97473.97;7400781;19;20365;-89
2023/12/18 05:08:26;;;;;;;22.43;14.93;;;;;;;-0.06;100.00;97395.94;7399393;19;20408;-89
2023/12/18 05:10:54;;;;;;;30.97;15.97;;;;;;;1.04;100.00;97545.69;7400764;19;20373;-89
2023/12/18 05:13:21;;;;;;;24.10;18.40;;;;;;;0.18;100.00;97401.41;7400863;19;20371;-89
2023/12/18 05:15:51;;;;;;;33.43;19.37;;;;;;;0.89;100.00;97528.63;7400893;19;20397;-90
2023/12/18 05:18:19;;;;;;;23.07;15.73;;;;;;;1.22;100.00;97577.59;7400684;19;20445;-89
2023/12/18 05:20:46;;;;;;;36.10;16.53;;;;;;;1.07;100.00;97537.53;7399923;19;20400;-89
2023/12/18 05:23:14;;;;;;;20.37;14.23;;;;;;;0.78;100.00;97493.13;7400454;19;20361;-89
2023/12/18 05:25:41;;;;;;;29.23;18.40;;;;;;;0.46;100.00;97438.03;7400320;19;20381;-89
2023/12/18 05:28:09;;;;;;;26.70;18.03;;;;;;;1.55;100.00;97578.41;7399330;19;20368;-89
2023/12/18 05:30:36;;;;;;;26.53;18.00;;;;;;;0.78;100.00;97464.72;7400623;19;20384;-89
2023/12/18 05:33:04;;;;;;;27.43;18.40;;;;;;;0.82;100.00;97463.28;7398471;19;20448;-89
2023/12/18 05:35:31;;;;;;;40.67;22.00;;;;;;;0.55;100.00;97415.34;7400153;19;20385;-89
2023/12/18 05:37:59;;;;;;;26.90;16.90;;;;;;;0.95;100.00;97475.34;7401594;19;20371;-92
2023/12/18 05:40:27;;;;;;;20.87;16.13;;;;;;;0.79;100.00;97461.13;7397767;19;20472;-90
2023/12/18 05:42:55;;;;;;;19.07;13.23;;;;;;;0.99;100.00;97504.16;7398504;19;20413;-89
2023/12/18 05:45:23;;;;;;;24.23;16.23;;;;;;;1.73;100.00;97622.50;7398260;19;20383;-90
2023/12/18 05:47:50;;;;;;;20.13;14.50;;;;;;;0.96;100.00;97500.19;7399135;19;20915;-90
2023/12/18 05:50:18;;;;;;;19.97;15.10;;;;;;;1.11;100.00;97525.75;7400052;19;20357;-90
2023/12/18 05:52:45;;;;;;;20.20;14.60;;;;;;;0.90;100.00;97477.78;7397704;19;20922;-90
2023/12/18 05:55:13;;;;;;;20.77;15.00;;;;;;;1.34;100.00;97543.34;7399452;19;20365;-90
2023/12/18 05:57:41;;;;;;;24.50;15.00;;;;;;;0.86;100.00;97472.22;7398973;19;20368;-91
2023/12/18 06:00:09;;;;;;;23.43;16.43;;;;;;;1.34;100.00;97507.91;7399347;19;20373;-90
2023/12/18 06:02:38;;;;;;;28.37;16.30;;;;;;;1.72;100.00;97598.41;7399221;19;20909;-89
2023/12/18 06:05:21;;;;;;;34.97;17.60;;;;;;;0.97;100.00;97462.22;7400933;19;20672;-89
2023/12/18 06:07:48;;;;;;;28.10;19.27;;;;;;;1.22;100.00;97510.38;7399192;19;20421;-90
2023/12/18 06:10:15;;;;;;;32.80;18.23;;;;;;;1.08;100.00;97490.00;7399150;19;20384;-90
2023/12/18 06:12:43;;;;;;;25.80;15.50;;;;;;;1.09;100.00;97481.22;7398239;19;20412;-90
2023/12/18 06:15:11;;;;;;;21.57;16.00;;;;;;;0.97;100.00;97475.94;7399295;19;20444;-90
2023/12/18 06:17:38;;;;;;;20.50;13.60;;;;;;;0.83;100.00;97461.50;7398611;19;20381;-90
2023/12/18 06:20:06;;;;;;;18.37;14.00;;;;;;;0.53;100.00;97414.78;7398553;19;20906;-90
2023/12/18 06:22:34;;;;;;;24.67;18.27;;;;;;;1.35;100.00;97547.50;7396611;19;20430;-90
2023/12/18 06:25:05;;;;;;;26.57;17.60;;;;;;;0.47;100.00;97413.78;7398424;19;20387;-90
2023/12/18 06:27:33;;;;;;;26.93;17.80;;;;;;;1.40;100.00;97550.25;7398579;19;20369;-90
2023/12/18 06:30:00;;;;;;;22.60;15.43;;;;;;;0.67;100.00;97429.19;7398086;19;20389;-90
2023/12/18 06:32:28;;;;;;;22.83;15.73;;;;;;;0.91;100.00;97498.25;7397481;19;20397;-90
2023/12/18 06:34:55;;;;;;;31.47;21.00;;;;;;;0.52;100.00;97434.63;7400213;19;20385;-90
2023/12/18 06:37:24;;;;;;;23.40;16.50;;;;;;;1.02;100.00;97542.50;7399000;19;20384;-89
2023/12/18 06:39:54;;;;;;;23.07;17.23;;;;;;;0.59;100.00;97549.03;7396514;19;20408;-90
2023/12/18 06:42:21;;;;;;;25.17;18.67;;;;;;;0.89;100.00;97562.22;7397215;19;20452;-90
2023/12/18 06:44:49;;;;;;;26.63;18.30;;;;;;;0.88;100.00;97523.69;7399078;19;20381;-90
2023/12/18 06:47:16;;;;;;;31.60;18.23;;;;;;;1.05;100.00;97558.41;7397481;19;20389;-90
2023/12/18 06:49:44;;;;;;;23.30;17.73;;;;;;;1.10;100.00;97542.28;7396767;19;20397;-90
2023/12/18 06:52:13;;;;;;;21.30;17.40;;;;;;;0.91;100.00;97534.41;7397194;19;20427;-90
2023/12/18 06:54:43;;;;;;;24.83;18.17;;;;;;;0.69;100.00;97552.97;7397609;19;20381;-85
2023/12/18 06:57:12;;;;;;;24.50;17.40;;;;;;;1.65;100.00;97639.06;7397069;19;20399;-92
2023/12/18 06:59:39;;;;;;;21.23;15.10;;;;;;;0.84;100.00;97501.84;7398776;19;20413;-91
2023/12/18 07:02:07;;;;;;;18.70;14.57;;;;;;;0.80;100.00;97490.34;7396698;19;20409;-92
2023/12/18 07:04:34;;;;;;;18.33;14.57;;;;;;;0.93;100.00;97511.75;7397664;19;20893;-91
2023/12/18 07:07:02;;;;;;;20.93;16.10;;;;;;;0.79;100.00;97497.31;7397319;19;20869;-92
2023/12/18 07:09:29;;;;;;;20.43;15.70;;;;;;;0.79;100.00;97520.56;7396051;19;20396;-91
2023/12/18 07:11:57;;;;;;;18.50;14.30;;;;;;;0.96;100.00;97541.53;7396773;19;20412;-92
2023/12/18 07:14:25;;;;;;;24.43;18.57;;;;;;;0.31;100.00;97446.03;7397873;19;20376;-90
2023/12/18 07:16:53;;;;;;;23.13;14.77;;;;;;;0.58;100.00;97495.00;7396993;19;20388;-92
2023/12/18 07:19:21;;;;;;;21.33;16.43;;;;;;;1.62;100.00;97646.44;7398877;19;20674;-92
2023/12/18 07:21:49;;;;;;;21.63;15.07;;;;;;;1.05;100.00;97553.25;7395908;19;20419;-91
2023/12/18 07:24:17;;;;;;;18.70;13.80;;;;;;;0.87;100.00;97555.69;7397430;19;20368;-91
2023/12/18 07:26:44;;;;;;;20.30;14.63;;;;;;;0.47;100.00;97493.03;7396799;19;20377;-91
2023/12/18 07:29:11;;;;;;;21.60;15.20;;;;;;;0.55;100.00;97519.44;7396186;19;20376;-91
2023/12/18 07:31:39;;;;;;;24.00;15.67;;;;;;;0.90;100.00;97556.09;7395977;19;20404;-91
2023/12/18 07:34:07;;;;;;;20.30;13.93;;;;;;;0.33;100.00;97474.22;7396381;19;20460;-92
2023/12/18 07:36:38;;;;;;;26.70;17.47;;;;;;;0.93;100.00;97560.06;7396498;19;20381;-91
2023/12/18 07:39:07;;;;;;;26.67;19.40;;;;;;;0.48;100.00;97500.59;7395516;19;20722;-91
2023/12/18 07:41:35;;;;;;;28.03;17.10;;;;;;;0.72;100.00;97521.56;7395351;19;20397;-91
2023/12/18 07:44:03;;;;;;;22.60;17.03;;;;;;;1.22;100.00;97579.41;7396483;19;20377;-91
2023/12/18 07:46:31;;;;;;;22.93;14.33;;;;;;;1.62;100.00;97638.69;7397038;19;20444;-91
2023/12/18 07:48:58;;;;;;;25.07;15.13;;;;;;;0.95;100.00;97523.66;7395905;19;20431;-91
2023/12/18 07:51:26;;;;;;;21.40;15.23;;;;;;;1.01;100.00;97531.38;7395539;19;20412;-91
2023/12/18 07:53:53;;;;;;;26.00;15.93;;;;;;;0.98;100.00;97525.81;7396691;19;20389;-91
2023/12/18 07:56:21;;;;;;;19.90;14.47;;;;;;;0.82;100.00;97516.75;7395942;19;20474;-91
2023/12/18 07:58:49;;;;;;;23.23;15.70;;;;;;;1.07;100.00;97546.06;7395921;19;20389;-91
2023/12/18 08:01:18;;;;;;;21.67;15.70;;;;;;;0.82;100.00;97504.63;7396249;19;20407;-91
2023/12/18 08:03:47;;;;;;;22.10;16.50;;;;;;;1.14;100.00;97546.81;7396599;19;20376;-92
2023/12/18 08:06:15;;;;;;;22.73;14.53;;;;;;;1.16;100.00;97541.44;7396298;19;20384;-91
2023/12/18 08:08:42;;;;;;;31.20;15.60;;;;;;;1.38;100.00;97578.13;7401939;19;20368;-90
2023/12/18 08:11:10;;;;;;;21.40;14.60;;;;;;;1.14;100.00;97531.28;7402810;19;20751;-91
2023/12/18 08:13:41;;;;;;;18.03;13.73;;;;;;;0.56;100.00;97453.88;7402823;19;20380;-91
2023/12/18 08:16:09;;;;;;;19.60;14.60;;;;;;;0.74;100.00;97502.28;7403811;19;20376;-91
2023/12/18 08:18:36;;;;;;;23.07;15.60;;;;;;;0.95;100.00;97515.91;7404339;19;20376;-91
2023/12/18 08:21:04;;;;;;;20.17;14.80;;;;;;;1.21;100.00;97563.09;7402235;19;20421;-91
2023/12/18 08:23:32;;;;;;;22.47;14.67;;;;;;;1.15;100.00;97545.00;7402670;19;20372;-91
2023/12/18 08:25:59;;;;;;;20.30;15.20;;;;;;;1.43;100.00;97581.69;7402387;19;20373;-91
2023/12/18 08:28:27;;;;;;;20.23;15.07;;;;;;;1.58;100.00;97593.53;7402186;19;20887;-91
2023/12/18 08:30:54;;;;;;;19.70;15.17;;;;;;;1.43;100.00;97555.81;7403782;19;20788;-87
2023/12/18 08:33:22;;;;;;;20.43;15.20;;;;;;;1.32;100.00;97543.56;7404022;19;20663;-87
2023/12/18 08:35:50;;;;;;;19.73;15.90;;;;;;;1.01;100.00;97481.47;7401264;19;20405;-87
2023/12/18 08:38:17;;;;;;;24.63;16.87;;;;;;;0.60;100.00;97472.34;7401181;19;20403;-87
2023/12/18 08:40:45;;;;;;;21.57;15.57;;;;;;;1.28;100.00;97564.84;7401453;19;20373;-87
2023/12/18 08:43:13;;;;;;;23.37;17.33;;;;;;;1.57;100.00;97592.75;7420411;19;20396;-87
2023/12/18 08:45:41;;;;;;;26.27;16.20;;;;;;;0.84;100.00;97469.03;7427463;19;20388;-87
2023/12/18 08:48:09;;;;;;;15.00;12.70;;;;;;;0.96;100.00;97491.66;7426778;19;20398;-86
2023/12/18 08:50:37;;;;;;;22.17;15.30;;;;;;;1.25;100.00;97532.44;7414222;19;20377;-82
2023/12/18 08:53:04;;;;;;;20.10;14.73;;;;;;;1.35;100.00;97547.50;7405745;19;20688;-86
2023/12/18 08:55:32;;;;;;;22.10;16.90;;;;;;;1.35;100.00;97540.53;7401864;19;20377;-87
2023/12/18 08:58:00;;;;;;;22.23;15.30;;;;;;;1.07;100.00;97498.75;7400728;19;20381;-87
2023/12/18 09:00:27;;;;;;;19.67;14.03;;;;;;;0.69;100.00;97468.53;7401084;19;20396;-87
2023/12/18 09:02:55;;;;;;;22.43;14.20;;;;;;;0.94;100.00;97507.38;7398276;19;20397;-87
2023/12/18 09:05:22;;;;;;;20.77;12.90;;;;;;;1.22;100.00;97532.88;7400244;19;20906;-87
2023/12/18 09:07:50;;;;;;;21.80;14.80;;;;;;;1.09;100.00;97489.00;7400222;19;20372;-87
2023/12/18 09:10:22;;;;;;;23.73;16.30;;;;;;;1.44;100.00;97561.78;7400048;19;20389;-86
2023/12/18 09:12:53;;;;;;;21.87;14.90;;;;;;;1.07;100.00;97534.94;7398080;19;20898;-86
2023/12/18 09:15:21;;;;;;;19.77;14.50;;;;;;;1.30;100.00;97540.38;7399921;19;20397;-87
2023/12/18 09:17:48;;;;;;;17.57;14.40;;;;;;;1.09;100.00;97499.31;7400210;19;20475;-87
2023/12/18 09:20:16;;;;;;;19.53;14.93;;;;;;;1.15;100.00;97516.56;7398716;19;20381;-86
2023/12/18 09:22:48;;;;;;;23.07;15.20;;;;;;;1.25;100.00;97523.88;7399978;19;20418;-87
2023/12/18 09:25:16;;;;;;;20.40;14.63;;;;;;;1.18;100.00;97511.00;7401866;19;20374;-86
2023/12/18 09:27:43;;;;;;;20.70;14.47;;;;;;;1.52;100.00;97559.72;7399978;19;20385;-86
2023/12/18 09:30:11;;;;;;;21.20;14.67;;;;;;;1.29;100.00;97514.69;7397961;19;20381;-86
2023/12/18 09:32:39;;;;;;;19.93;15.43;;;;;;;1.74;100.00;97577.50;7397905;19;20924;-87
2023/12/18 09:35:08;;;;;;;16.93;13.07;;;;;;;1.68;100.00;97573.94;7400210;19;20382;-87
2023/12/18 09:37:35;;;;;;;18.03;14.37;;;;;;;0.75;100.00;97418.59;7399530;19;20452;-87
2023/12/18 09:40:05;;;;;;;20.07;14.80;;;;;;;1.12;100.00;97483.41;7397233;19;20430;-87
2023/12/18 09:42:34;;;;;;;17.83;14.07;;;;;;;1.27;100.00;97503.78;7397331;19;20405;-86
2023/12/18 09:45:02;;;;;;;17.63;12.63;;;;;;;1.89;100.00;97621.19;7399280;19;20356;-86
2023/12/18 09:47:30;;;;;;;20.60;14.83;;;;;;;1.45;100.00;97551.22;7400937;19;20364;-87
2023/12/18 09:49:58;;;;;;;18.17;14.60;;;;;;;1.41;100.00;97521.59;7398107;19;20404;-87
2023/12/18 09:52:30;;;;;;;16.67;13.07;;;;;;;1.76;100.00;97594.41;7397694;19;20409;-88
2023/12/18 09:55:01;;;;;;;14.93;11.50;;;;;;;0.99;100.00;97461.00;7399254;19;20819;-87
2023/12/18 09:57:31;;;;;;;17.60;13.87;;;;;;;1.34;100.00;97513.09;7398862;19;20469;-87
2023/12/18 09:59:59;;;;;;;17.10;14.80;;;;;;;1.19;100.00;97494.50;7400143;19;20405;-87
2023/12/18 10:02:28;;;;;;;16.90;12.03;;;;;;;1.25;100.00;97504.00;7396944;19;20420;-87
2023/12/18 10:04:56;;;;;;;14.20;12.40;;;;;;;1.23;100.00;97465.41;7398261;19;20377;-87
2023/12/18 10:07:23;;;;;;;16.10;13.30;;;;;;;1.36;100.00;97507.72;7398728;19;20373;-87
2023/12/18 10:09:50;;;;;;;18.53;14.97;;;;;;;1.43;100.00;97498.91;7397215;19;20393;-87
2023/12/18 10:12:18;;;;;;;16.23;13.70;;;;;;;1.39;100.00;97456.34;7398602;19;20866;-87
2023/12/18 10:14:46;;;;;;;15.80;12.10;;;;;;;1.56;100.00;97468.75;7398131;19;20368;-87
2023/12/18 10:17:14;;;;;;;16.93;13.27;;;;;;;1.46;100.00;97464.06;7399621;19;20856;-87
2023/12/18 10:19:43;;;;;;;17.17;12.77;;;;;;;1.45;100.00;97454.72;7400082;19;20385;-87
2023/12/18 10:22:10;;;;;;;16.87;13.53;;;;;;;1.32;100.00;97422.00;7397218;19;20397;-87
2023/12/18 10:24:42;;;;;;;17.77;12.60;;;;;;;1.48;100.00;97455.09;7399577;19;20444;-85
2023/12/18 10:27:10;;;;;;;16.07;14.33;;;;;;;2.15;100.00;97566.63;7398439;19;20392;-85
2023/12/18 10:29:37;;;;;;;14.03;12.63;;;;;;;1.55;100.00;97467.97;7396596;19;20392;-85
2023/12/18 10:32:08;;;;;;;17.57;14.33;;;;;;;1.71;100.00;97479.59;7396447;19;20893;-85
2023/12/18 10:34:36;;;;;;;15.90;13.50;;;;;;;2.29;100.00;97572.47;7397940;19;20397;-88
2023/12/18 10:37:04;;;;;;;16.50;13.80;;;;;;;1.99;100.00;97518.75;7398295;19;20677;-88
2023/12/18 10:39:37;;;;;;;14.97;12.00;;;;;;;1.74;100.00;97454.06;7397147;19;20431;-88
2023/12/18 10:42:14;;;;;;;15.90;12.93;;;;;;;2.00;100.00;97497.03;7396913;19;20415;-87
2023/12/18 10:44:43;;;;;;;16.77;13.03;;;;;;;2.51;100.00;97572.88;7397892;19;20396;-88
2023/12/18 10:47:16;;;;;;;16.53;13.07;;;;;;;2.19;100.00;97518.56;7397099;19;20396;-88
2023/12/18 10:49:46;;;;;;;17.30;13.93;;;;;;;1.98;100.00;97474.97;7398670;19;20361;-88
2023/12/18 10:52:16;;;;;;;18.17;13.33;;;;;;;2.01;100.00;97475.31;7395600;19;20925;-88
2023/12/18 10:54:45;;;;;;;16.33;13.07;;;;;;;2.31;100.00;97508.28;7396785;19;20401;-88
2023/12/18 10:57:17;;;;;;;15.80;14.03;;;;;;;2.39;100.00;97508.00;7396626;19;20401;-88
2023/12/18 10:59:49;;;;;;;17.57;12.40;;;;;;;1.97;100.00;97461.25;7396693;19;20383;-89
2023/12/18 11:02:18;;;;;;;14.07;11.60;;;;;;;2.03;100.00;97481.06;7395321;19;20409;-88
2023/12/18 11:04:48;;;;;;;19.70;14.83;;;;;;;2.03;100.00;97470.72;7396495;19;20381;-88
2023/12/18 11:07:19;;;;;;;16.30;14.03;;;;;;;2.23;100.00;97486.06;7396791;19;20391;-88
2023/12/18 11:09:47;;;;;;;20.43;13.70;;;;;;;2.07;100.00;97434.84;7402940;19;20693;-88
2023/12/18 11:12:17;;;;;;;16.70;12.87;;;;;;;2.22;100.00;97460.38;7420586;19;20439;-87
2023/12/18 11:14:58;;;;;;;16.17;11.83;;;;;;;2.91;100.00;97568.03;7410371;19;20357;-88
2023/12/18 11:17:26;;;;;;;24.83;13.30;;;;;;;2.85;100.00;97563.72;7396033;19;20945;-88
2023/12/18 11:19:59;;;;;;;14.50;13.00;;;;;;;2.85;100.00;97558.53;7395885;19;20441;-88
2023/12/18 11:22:46;;;;;;;16.07;12.73;;;;;;;2.56;100.00;97497.84;7394897;19;20415;-88